Atlantic - Newfoundland: Past 24 Hour Conditions

 

J.A. Douglas McCurdy Sydney Airport

08:00 AM ADT 16 April 2014
This table is a summary of hourly weather conditions for the past 24 hours.
Date / Time
(ADT)
Wind(knots) Conditions Visibility(km) Pressure(kPa) Air tempC) Relative humidity(%) Dew pointC)
16 April 2014
8:00 S 17 gust 24 Mostly Cloudy 16 101.3 11 81 8
7:00 S 13 gust 20 Mostly Cloudy 16 101.3 10 85 8
6:00 SSW 10 gust 16 Cloudy 16 101.4 10 88 8
5:00 SSW 17 gust 31 Cloudy 16 101.4 11 86 9
4:00 SSW 19 gust 27 Cloudy 16 101.4 11 86 9
3:00 SW 17 gust 28 Fog 10 101.4 12 88 10
2:00 SSW 18 gust 25 Fog 10 101.5 11 89 10
1:00 SW 16 gust 26 Fog 10 101.6 12 89 10
0:00 SW 12 gust 17 Fog 5 101.7 11 92 10
15 April 2014
23:00 SSW 15 gust 20 Fog 6 101.7 11 92 10
22:00 SW 13 gust 22 Fog 5 101.7 11 93 9
21:00 SSW 11 gust 17 Fog 1 101.8 10 93 9
20:00 SW 12 gust 22 Fog 1 101.8 10 94 9
19:00 SW 16 gust 22 Cloudy 16 101.7 12 87 10
18:00 SSW 14 gust 20 Partly Cloudy 24 101.7 15 73 10
17:00 SW 18 gust 25 Partly Cloudy 24 101.7 15 68 9
16:00 SSW 12 gust 20 Partly Cloudy 24 101.7 16 68 10
15:00 SW 14 gust 19 Partly Cloudy 24 101.8 17 68 11
14:00 SW 19 gust 28 Partly Cloudy 24 101.8 15 74 11
13:00 SW 16 gust 24 Mostly Cloudy 24 101.8 16 76 12
12:00 SW 16 gust 22 Partly Cloudy 24 101.9 15 80 11
11:00 SW 14 gust 20 Partly Cloudy 24 101.9 12 87 10
10:00 SW 12 gust 18 Partly Cloudy 24 101.9 12 88 10
9:00 SW 13 gust 18 Partly Cloudy 16 101.8 10 91 9
8:00 SW 14 gust 19 Cloudy 24 101.8 10 91 8
 
Map of Atlantic - Newfoundland marine weather areas Southwestern Grand Banks - 44138 Banquereau - 44139 Tail of the Bank - 44140 Nickerson Bank - 44251 Northeast Burgeo Bank - 44255 Blanc-Sablon Airport Cap Whittle Chevery Natashquan Airport Heath Point Miscou Island Grand Étang Ingonish Beach North Mountain St.Paul Island J.A. Douglas McCurdy Sydney Airport Charlottetown Airport East Point North Cape Argentia Bonavista Burgeo Cape Race Corner Brook Daniel's Harbour Englee Ferolle Point La Scie Port aux Basques Rocky Harbour Sagona Island St. Anthony Airport St. John's Int'l Airport St. Lawrence Stephenville Airport Twillingate Winterland Wreckhouse Cartwright Airport Mary's Harbour Grates Cove Pool's Island Marticot Island Long Pond Îles de la Madeleine Airport
Legend: buoyBuoy land stationLand Station